createdAt,value
2022-09-07T00:02:14.157Z,12.04
2022-09-07T00:04:40.736Z,12.01
2022-09-07T00:07:07.271Z,11.92
2022-09-07T00:09:33.779Z,11.93
2022-09-07T00:12:00.311Z,11.97
2022-09-07T00:14:26.869Z,11.87
2022-09-07T00:16:53.412Z,11.84
2022-09-07T00:19:19.950Z,11.82
2022-09-07T00:21:46.491Z,11.78
2022-09-07T00:24:13.192Z,11.83
2022-09-07T00:26:40.224Z,11.79
2022-09-07T00:29:07.964Z,11.76
2022-09-07T00:31:35.538Z,11.80
2022-09-07T00:34:03.032Z,11.80
2022-09-07T00:36:30.241Z,11.76
2022-09-07T00:38:57.210Z,11.81
2022-09-07T00:41:24.686Z,11.78
2022-09-07T00:43:54.460Z,11.74
2022-09-07T00:46:29.447Z,11.73
2022-09-07T00:49:01.799Z,11.69
2022-09-07T00:51:52.607Z,11.68
2022-09-07T00:54:24.735Z,11.60
2022-09-07T00:56:52.938Z,11.58
2022-09-07T00:59:25.136Z,11.61
2022-09-07T01:01:51.987Z,11.61
2022-09-07T01:04:20.328Z,11.67
2022-09-07T01:06:46.919Z,11.63
2022-09-07T01:09:17.376Z,11.61
2022-09-07T01:11:50.701Z,11.59
2022-09-07T01:14:22.840Z,11.51
2022-09-07T01:16:57.344Z,11.53
2022-09-07T01:19:26.683Z,11.48
2022-09-07T01:22:28.211Z,11.43
2022-09-07T01:25:10.067Z,11.43
2022-09-07T01:27:54.254Z,11.44
2022-09-07T01:30:23.647Z,11.39
2022-09-07T01:33:14.910Z,11.36
2022-09-07T01:36:04.891Z,11.34
2022-09-07T01:38:35.711Z,11.28
2022-09-07T01:41:24.999Z,11.29
2022-09-07T01:44:24.798Z,11.32
2022-09-07T01:47:01.476Z,11.26
2022-09-07T01:49:43.394Z,11.26
2022-09-07T01:52:44.493Z,11.27
2022-09-07T01:55:21.070Z,11.31
2022-09-07T01:57:59.420Z,11.33
2022-09-07T02:00:26.217Z,11.38
2022-09-07T02:02:56.861Z,11.45
2022-09-07T02:05:27.636Z,11.42
2022-09-07T02:08:00.852Z,11.38
2022-09-07T02:10:38.319Z,11.43
2022-09-07T02:13:19.211Z,11.45
2022-09-07T02:15:57.961Z,11.42
2022-09-07T02:18:26.611Z,11.46
2022-09-07T02:20:57.675Z,11.46
2022-09-07T02:23:37.793Z,11.43
2022-09-07T02:26:10.381Z,11.40
2022-09-07T02:28:38.791Z,11.40
2022-09-07T02:31:06.170Z,11.43
2022-09-07T02:33:33.214Z,11.42
2022-09-07T02:36:01.607Z,11.38
2022-09-07T02:38:28.210Z,11.36
2022-09-07T02:40:56.721Z,11.36
2022-09-07T02:43:25.094Z,11.38
2022-09-07T02:46:07.083Z,11.40
2022-09-07T02:49:02.203Z,11.43
2022-09-07T02:52:16.667Z,11.43
2022-09-07T02:55:24.046Z,11.42
2022-09-07T02:58:12.110Z,11.46
2022-09-07T03:00:57.142Z,11.46
2022-09-07T03:03:32.120Z,11.41
2022-09-07T03:06:06.994Z,11.40
2022-09-07T03:08:41.085Z,11.38
2022-09-07T03:11:08.603Z,11.34
2022-09-07T03:13:35.195Z,11.25
2022-09-07T03:16:02.173Z,11.18
2022-09-07T03:18:29.299Z,11.15
2022-09-07T03:20:56.859Z,11.10
2022-09-07T03:23:23.719Z,11.09
2022-09-07T03:25:50.559Z,11.05
2022-09-07T03:28:17.511Z,11.01
2022-09-07T03:30:46.234Z,10.95
2022-09-07T03:33:15.916Z,10.94
2022-09-07T03:35:46.778Z,10.92
2022-09-07T03:38:13.320Z,10.86
2022-09-07T03:40:39.963Z,10.79
2022-09-07T03:43:06.474Z,10.78
2022-09-07T03:45:32.976Z,10.77
2022-09-07T03:47:59.463Z,10.75
2022-09-07T03:50:26.026Z,10.76
2022-09-07T03:52:52.529Z,10.74
2022-09-07T03:55:19.060Z,10.66
2022-09-07T03:57:45.594Z,10.64
2022-09-07T04:00:12.682Z,10.67
2022-09-07T04:02:40.741Z,10.63
2022-09-07T04:05:07.714Z,10.68
2022-09-07T04:07:34.217Z,10.71
2022-09-07T04:10:00.734Z,10.75
2022-09-07T04:12:27.735Z,10.74
2022-09-07T04:14:54.334Z,10.76
2022-09-07T04:17:20.819Z,10.75
2022-09-07T04:19:47.372Z,10.78
2022-09-07T04:22:13.858Z,10.79
2022-09-07T04:24:40.364Z,10.78
2022-09-07T04:27:06.906Z,10.77
2022-09-07T04:29:33.468Z,10.77
2022-09-07T04:31:59.949Z,10.82
2022-09-07T04:34:26.476Z,10.93
2022-09-07T04:36:52.978Z,11.08
2022-09-07T04:39:19.558Z,11.26
2022-09-07T04:41:46.051Z,11.39
2022-09-07T04:44:16.653Z,11.45
2022-09-07T04:46:43.568Z,11.60
2022-09-07T04:49:11.978Z,11.69
2022-09-07T04:51:39.499Z,11.93
2022-09-07T04:54:07.050Z,12.09
2022-09-07T04:56:33.619Z,12.10
2022-09-07T04:59:01.915Z,12.25
2022-09-07T05:01:29.020Z,12.36
2022-09-07T05:03:55.604Z,12.73
2022-09-07T05:06:23.544Z,12.57
2022-09-07T05:08:52.883Z,12.79
2022-09-07T05:11:24.956Z,12.78
2022-09-07T05:13:56.999Z,12.68
2022-09-07T05:16:25.205Z,12.50
2022-09-07T05:18:53.749Z,12.37
2022-09-07T05:21:23.441Z,12.13
2022-09-07T05:23:52.006Z,12.12
2022-09-07T05:26:20.629Z,12.54
2022-09-07T05:28:47.274Z,13.32
2022-09-07T05:36:39.722Z,14.09
2022-09-07T05:39:07.452Z,14.70
2022-09-07T05:41:34.317Z,14.80
2022-09-07T05:46:47.687Z,14.75
2022-09-07T05:49:14.227Z,15.22
2022-09-07T05:51:41.173Z,15.63
2022-09-07T05:54:07.685Z,15.75
2022-09-07T05:56:36.143Z,16.00
2022-09-07T05:59:02.990Z,16.04
2022-09-07T06:01:29.557Z,16.42
2022-09-07T06:03:56.064Z,16.55
2022-09-07T06:06:24.169Z,16.49
2022-09-07T06:08:52.828Z,17.50
2022-09-07T06:11:23.983Z,17.65
2022-09-07T06:13:51.947Z,17.78
2022-09-07T06:16:20.139Z,17.97
2022-09-07T06:18:48.918Z,18.00
2022-09-07T06:21:23.461Z,18.21
2022-09-07T06:23:50.874Z,18.60
2022-09-07T06:26:19.524Z,19.00
2022-09-07T06:28:50.245Z,18.90
2022-09-07T06:31:22.158Z,19.60
2022-09-07T06:33:49.515Z,18.33
2022-09-07T06:36:25.247Z,18.20
2022-09-07T06:38:51.797Z,18.41
2022-09-07T06:44:11.157Z,18.48
2022-09-07T06:49:25.548Z,19.70
2022-09-07T06:51:52.220Z,19.44
2022-09-07T06:57:09.439Z,19.07
2022-09-07T06:59:36.784Z,20.61
2022-09-07T07:02:04.282Z,20.35
2022-09-07T07:04:31.113Z,21.19
2022-09-07T07:06:58.367Z,21.81
2022-09-07T07:09:24.911Z,22.72
2022-09-07T07:11:51.506Z,21.53
2022-09-07T07:14:18.477Z,22.06
2022-09-07T07:16:45.281Z,22.67
2022-09-07T07:19:11.876Z,23.36
2022-09-07T07:22:03.521Z,22.80
2022-09-07T07:24:24.911Z,22.84
2022-09-07T07:26:51.604Z,22.26
2022-09-07T07:29:18.990Z,22.82
2022-09-07T07:31:47.422Z,23.64
2022-09-07T07:34:15.153Z,22.95
2022-09-07T07:36:41.893Z,23.24
2022-09-07T07:41:58.732Z,23.01
2022-09-07T07:44:28.269Z,23.35
2022-09-07T07:46:54.782Z,23.30
2022-09-07T07:49:21.445Z,21.48
2022-09-07T07:54:37.434Z,22.31
2022-09-07T07:57:06.851Z,21.75
2022-09-07T07:59:33.936Z,23.39
2022-09-07T08:02:05.304Z,24.24
2022-09-07T08:04:33.289Z,24.80
2022-09-07T08:07:00.347Z,23.99
2022-09-07T08:09:26.984Z,23.60
2022-09-07T08:11:53.589Z,23.59
2022-09-07T08:14:20.108Z,24.35
2022-09-07T08:16:46.738Z,24.52
2022-09-07T08:19:13.390Z,23.64
2022-09-07T08:21:40.017Z,22.43
2022-09-07T08:24:07.091Z,21.98
2022-09-07T08:26:33.590Z,21.66
2022-09-07T08:29:00.422Z,21.92
2022-09-07T08:31:27.218Z,22.50
2022-09-07T08:33:53.766Z,22.58
2022-09-07T08:36:21.107Z,23.90
2022-09-07T08:38:48.148Z,24.71
2022-09-07T08:41:44.224Z,24.27
2022-09-07T08:44:22.279Z,23.12
2022-09-07T08:46:56.453Z,23.33
2022-09-07T08:49:45.383Z,23.25
2022-09-07T08:52:29.260Z,23.81
2022-09-07T08:55:03.712Z,23.12
2022-09-07T08:57:35.438Z,22.29
2022-09-07T09:00:07.908Z,21.84
2022-09-07T09:02:40.309Z,22.02
2022-09-07T09:05:51.826Z,21.91
2022-09-07T09:08:24.781Z,23.05
2022-09-07T09:11:09.576Z,24.24
2022-09-07T09:13:55.097Z,23.08
2022-09-07T09:16:43.649Z,23.17
2022-09-07T09:19:31.964Z,23.42
2022-09-07T09:22:13.644Z,23.68
2022-09-07T09:24:47.459Z,23.53
2022-09-07T09:27:14.383Z,24.29
2022-09-07T09:29:41.252Z,24.49
2022-09-07T09:32:35.435Z,24.26
2022-09-07T09:35:11.733Z,24.12
2022-09-07T09:37:39.912Z,25.27
2022-09-07T09:40:17.499Z,23.64
2022-09-07T09:42:44.618Z,24.46
2022-09-07T09:45:29.974Z,24.53
2022-09-07T09:47:57.820Z,24.72
2022-09-07T09:53:27.790Z,23.85
2022-09-07T09:55:55.042Z,24.33
2022-09-07T10:01:27.116Z,26.12
2022-09-07T10:06:21.334Z,25.30
2022-09-07T10:09:05.885Z,25.56
2022-09-07T10:12:07.841Z,26.07
2022-09-07T10:14:46.551Z,27.36
2022-09-07T10:17:33.494Z,27.19
2022-09-07T10:20:02.690Z,26.99
2022-09-07T10:22:36.673Z,25.00
2022-09-07T10:25:25.282Z,25.71
2022-09-07T10:28:18.535Z,25.14
2022-09-07T10:31:03.488Z,25.53
2022-09-07T10:37:08.418Z,26.59
2022-09-07T10:39:42.192Z,25.93
2022-09-07T10:42:21.908Z,24.24
2022-09-07T10:45:05.837Z,24.82
2022-09-07T10:47:55.041Z,25.68
2022-09-07T10:50:41.680Z,24.69
2022-09-07T10:53:42.749Z,24.32
2022-09-07T10:56:20.106Z,24.22
2022-09-07T10:59:24.814Z,24.47
2022-09-07T11:02:13.560Z,25.77
2022-09-07T11:05:16.484Z,25.93
2022-09-07T11:07:45.850Z,26.69
2022-09-07T11:10:24.633Z,25.61
2022-09-07T11:12:54.021Z,25.63
2022-09-07T11:15:32.789Z,25.49
2022-09-07T11:18:12.119Z,25.99
2022-09-07T11:20:55.338Z,26.92
2022-09-07T11:23:21.883Z,26.56
2022-09-07T11:26:18.701Z,25.70
2022-09-07T11:31:50.794Z,25.09
2022-09-07T11:34:29.118Z,24.97
2022-09-07T11:37:02.368Z,25.80
2022-09-07T11:39:41.399Z,25.85
2022-09-07T11:45:19.910Z,26.76
2022-09-07T11:48:00.927Z,26.06
2022-09-07T11:50:31.548Z,25.82
2022-09-07T11:53:07.546Z,25.45
2022-09-07T11:55:40.819Z,25.39
2022-09-07T11:58:35.389Z,24.81
2022-09-07T12:01:23.533Z,24.40
2022-09-07T12:04:24.811Z,24.27
2022-09-07T12:07:01.890Z,23.76
2022-09-07T12:09:39.607Z,23.85
2022-09-07T12:12:24.233Z,23.66
2022-09-07T12:14:53.745Z,23.37
2022-09-07T12:17:54.088Z,23.44
2022-09-07T12:20:25.290Z,23.76
2022-09-07T12:23:05.357Z,24.11
2022-09-07T12:25:34.267Z,24.33
2022-09-07T12:28:01.446Z,24.24
2022-09-07T12:30:30.159Z,24.08
2022-09-07T12:32:58.397Z,23.78
2022-09-07T12:35:28.450Z,23.93
2022-09-07T12:37:56.174Z,24.12
2022-09-07T12:40:32.405Z,24.26
2022-09-07T12:43:17.127Z,24.16
2022-09-07T12:45:43.660Z,24.17
2022-09-07T12:48:44.351Z,23.89
2022-09-07T12:54:43.528Z,23.61
2022-09-07T12:57:42.102Z,23.69
2022-09-07T13:00:38.221Z,23.83
2022-09-07T13:09:34.390Z,24.01
2022-09-07T13:12:04.879Z,24.28
2022-09-07T13:14:34.809Z,24.46
2022-09-07T13:17:32.998Z,24.37
2022-09-07T13:19:59.567Z,24.09
2022-09-07T13:22:35.404Z,24.13
2022-09-07T13:25:27.200Z,24.18
2022-09-07T13:28:12.142Z,24.19
2022-09-07T13:30:53.545Z,24.23
2022-09-07T13:33:27.053Z,24.46
2022-09-07T13:36:00.318Z,24.61
2022-09-07T13:38:28.827Z,24.66
2022-09-07T13:41:04.480Z,24.41
2022-09-07T13:43:31.357Z,24.46
2022-09-07T13:46:02.684Z,24.31
2022-09-07T13:48:55.647Z,24.35
2022-09-07T13:51:32.092Z,24.15
2022-09-07T13:54:20.118Z,24.18
2022-09-07T13:56:54.505Z,24.17
2022-09-07T13:59:25.811Z,24.11
2022-09-07T14:01:53.064Z,24.38
2022-09-07T14:04:42.569Z,24.54
2022-09-07T14:07:35.166Z,24.58
2022-09-07T14:10:21.319Z,24.72
2022-09-07T14:12:52.019Z,24.77
2022-09-07T14:15:20.281Z,24.77
2022-09-07T14:17:47.787Z,24.69
2022-09-07T14:20:16.237Z,24.73
2022-09-07T14:22:44.038Z,24.79
2022-09-07T14:25:19.228Z,24.84
2022-09-07T14:27:49.654Z,24.83
2022-09-07T14:30:19.106Z,24.81
2022-09-07T14:33:20.217Z,24.99
2022-09-07T14:35:46.984Z,24.95
2022-09-07T14:38:13.691Z,24.78
2022-09-07T14:40:40.659Z,24.81
2022-09-07T14:43:34.523Z,24.83
2022-09-07T14:46:24.917Z,24.75
2022-09-07T14:48:55.247Z,24.96
2022-09-07T14:51:36.205Z,24.79
2022-09-07T14:54:06.064Z,24.69
2022-09-07T14:56:40.999Z,24.67
2022-09-07T14:59:40.676Z,24.66
2022-09-07T15:02:19.132Z,24.63
2022-09-07T15:04:47.476Z,24.61
2022-09-07T15:07:39.666Z,24.54
2022-09-07T15:10:36.880Z,24.68
2022-09-07T15:13:06.226Z,24.79
2022-09-07T15:15:37.136Z,24.83
2022-09-07T15:18:25.262Z,24.87
2022-09-07T15:20:52.902Z,24.80
2022-09-07T15:23:20.023Z,24.78
2022-09-07T15:25:53.711Z,24.75
2022-09-07T15:34:02.665Z,24.69
2022-09-07T15:36:32.061Z,24.65
2022-09-07T15:38:59.938Z,24.43
2022-09-07T15:41:27.774Z,24.38
2022-09-07T15:43:54.340Z,24.32
2022-09-07T15:46:20.891Z,24.13
2022-09-07T15:48:52.705Z,24.10
2022-09-07T15:54:11.539Z,23.90
2022-09-07T15:56:38.915Z,23.72
2022-09-07T15:59:05.799Z,23.68
2022-09-07T16:04:23.986Z,23.43
2022-09-07T16:06:50.907Z,23.20
2022-09-07T16:09:21.118Z,23.03
2022-09-07T16:11:50.113Z,22.88
2022-09-07T16:14:17.387Z,22.79
2022-09-07T16:19:34.611Z,22.69
2022-09-07T16:22:01.926Z,22.61
2022-09-07T16:24:28.470Z,22.52
2022-09-07T16:26:55.425Z,22.47
2022-09-07T16:29:22.483Z,22.32
2022-09-07T16:34:35.592Z,22.14
2022-09-07T16:37:02.440Z,22.08
2022-09-07T16:39:32.198Z,21.96
2022-09-07T16:42:00.055Z,21.86
2022-09-07T16:44:27.057Z,21.84
2022-09-07T16:46:53.612Z,21.77
2022-09-07T16:49:20.259Z,21.71
2022-09-07T16:51:46.799Z,21.59
2022-09-07T16:54:15.765Z,21.51
2022-09-07T16:56:42.270Z,21.42
2022-09-07T16:59:15.958Z,21.36
2022-09-07T17:01:43.092Z,21.39
2022-09-07T17:04:11.242Z,21.33
2022-09-07T17:06:39.907Z,21.22
2022-09-07T17:09:07.211Z,21.16
2022-09-07T17:11:35.955Z,21.09
2022-09-07T17:14:05.108Z,21.01
2022-09-07T17:16:34.438Z,21.02
2022-09-07T17:21:51.821Z,20.77
2022-09-07T17:24:19.691Z,20.70
2022-09-07T17:26:46.580Z,20.68
2022-09-07T17:29:13.454Z,20.58
2022-09-07T17:34:26.940Z,20.53
2022-09-07T17:36:53.419Z,20.57
2022-09-07T17:39:20.190Z,20.58
2022-09-07T17:41:48.389Z,20.58
2022-09-07T17:44:15.519Z,20.58
2022-09-07T17:46:42.234Z,20.53
2022-09-07T17:49:12.343Z,20.48
2022-09-07T17:51:39.440Z,20.41
2022-09-07T17:54:11.376Z,20.39
2022-09-07T17:56:39.364Z,20.33
2022-09-07T18:01:53.956Z,20.33
2022-09-07T18:04:20.583Z,20.39
2022-09-07T18:06:47.108Z,20.33
2022-09-07T18:09:14.028Z,20.38
2022-09-07T18:11:49.811Z,20.30
2022-09-07T18:14:17.296Z,20.28
2022-09-07T18:16:45.735Z,20.29
2022-09-07T18:19:12.853Z,20.23
2022-09-07T18:21:42.388Z,20.20
2022-09-07T18:24:16.649Z,20.22
2022-09-07T18:26:44.736Z,20.19
2022-09-07T18:29:28.123Z,20.11
2022-09-07T18:31:56.503Z,20.07
2022-09-07T18:34:23.166Z,20.05
2022-09-07T18:36:49.920Z,20.00
2022-09-07T18:39:16.573Z,19.95
2022-09-07T18:41:43.086Z,19.88
2022-09-07T18:46:56.282Z,19.78
2022-09-07T18:49:23.519Z,19.70
2022-09-07T18:54:37.849Z,19.52
2022-09-07T18:57:04.431Z,19.42
2022-09-07T18:59:30.943Z,19.38
2022-09-07T19:02:01.492Z,19.34
2022-09-07T19:07:17.692Z,19.22
2022-09-07T19:09:44.177Z,19.17
2022-09-07T19:12:10.660Z,19.15
2022-09-07T19:14:37.220Z,19.05
2022-09-07T19:17:03.775Z,18.95
2022-09-07T19:19:30.297Z,18.85
2022-09-07T19:21:57.843Z,18.85
2022-09-07T19:24:25.736Z,18.77
2022-09-07T19:26:55.724Z,18.70
2022-09-07T19:29:24.652Z,18.72
2022-09-07T19:32:07.061Z,18.66
2022-09-07T19:34:42.176Z,18.60
2022-09-07T19:37:10.870Z,18.64
2022-09-07T19:39:37.873Z,18.55
2022-09-07T19:42:05.403Z,18.47
2022-09-07T19:44:32.340Z,18.45
2022-09-07T19:47:00.142Z,18.40
2022-09-07T19:49:27.143Z,18.40
2022-09-07T19:51:53.632Z,18.40
2022-09-07T19:54:20.141Z,18.32
2022-09-07T19:56:46.665Z,18.30
2022-09-07T19:59:13.515Z,18.28
2022-09-07T20:01:43.802Z,18.26
2022-09-07T20:04:15.994Z,18.23
2022-09-07T20:06:48.127Z,18.20
2022-09-07T20:09:14.626Z,18.13
2022-09-07T20:11:46.027Z,18.13
2022-09-07T20:14:14.475Z,18.07
2022-09-07T20:16:41.761Z,18.03
2022-09-07T20:19:08.700Z,18.01
2022-09-07T20:21:36.848Z,17.94
2022-09-07T20:24:03.937Z,17.89
2022-09-07T20:26:32.242Z,17.84
2022-09-07T20:29:23.314Z,17.80
2022-09-07T20:31:46.862Z,17.73
2022-09-07T20:34:13.630Z,17.68
2022-09-07T20:36:40.148Z,17.66
2022-09-07T20:39:06.694Z,17.64
2022-09-07T20:41:34.116Z,17.61
2022-09-07T20:44:02.697Z,17.50
2022-09-07T20:46:30.330Z,17.52
2022-09-07T20:48:57.300Z,17.47
2022-09-07T20:51:23.966Z,17.37
2022-09-07T20:53:51.000Z,17.29
2022-09-07T20:56:20.253Z,17.23
2022-09-07T20:58:53.304Z,17.22
2022-09-07T21:01:21.247Z,17.15
2022-09-07T21:03:50.067Z,17.13
2022-09-07T21:06:17.422Z,17.05
2022-09-07T21:08:45.468Z,17.01
2022-09-07T21:11:15.397Z,17.03
2022-09-07T21:13:43.089Z,16.95
2022-09-07T21:16:12.651Z,16.89
2022-09-07T21:18:39.899Z,16.82
2022-09-07T21:21:22.147Z,16.76
2022-09-07T21:23:55.272Z,16.69
2022-09-07T21:26:21.814Z,16.67
2022-09-07T21:28:48.627Z,16.66
2022-09-07T21:31:15.156Z,16.60
2022-09-07T21:33:41.789Z,16.57
2022-09-07T21:36:11.208Z,16.56
2022-09-07T21:38:38.922Z,16.52
2022-09-07T21:41:07.384Z,16.49
2022-09-07T21:43:34.226Z,16.45
2022-09-07T21:46:31.194Z,16.39
2022-09-07T21:48:59.370Z,16.40
2022-09-07T21:51:26.822Z,16.42
2022-09-07T21:53:58.686Z,16.38
2022-09-07T21:56:26.624Z,16.26
2022-09-07T21:58:55.668Z,16.24
2022-09-07T22:01:23.974Z,16.17
2022-09-07T22:04:04.933Z,16.17
2022-09-07T22:06:32.426Z,16.21
2022-09-07T22:08:59.409Z,16.18
2022-09-07T22:11:28.603Z,16.11
2022-09-07T22:14:01.806Z,16.10
2022-09-07T22:16:29.015Z,16.11
2022-09-07T22:18:55.899Z,16.03
2022-09-07T22:21:25.163Z,15.96
2022-09-07T22:23:56.002Z,16.00
2022-09-07T22:26:24.471Z,15.90
2022-09-07T22:28:51.052Z,15.82
2022-09-07T22:31:20.559Z,15.74
2022-09-07T22:33:48.671Z,15.68
2022-09-07T22:36:24.544Z,15.61
2022-09-07T22:38:52.687Z,15.55
2022-09-07T22:41:24.633Z,15.53
2022-09-07T22:43:51.226Z,15.49
2022-09-07T22:46:20.351Z,15.48
2022-09-07T22:48:47.219Z,15.47
2022-09-07T22:51:13.793Z,15.41
2022-09-07T22:53:42.692Z,15.46
2022-09-07T22:56:14.678Z,15.39
2022-09-07T22:58:49.242Z,15.35
2022-09-07T23:01:16.182Z,15.34
2022-09-07T23:03:43.980Z,15.34
2022-09-07T23:06:22.696Z,15.25
2022-09-07T23:08:50.775Z,15.21
2022-09-07T23:11:17.543Z,15.19
2022-09-07T23:13:44.798Z,15.13
2022-09-07T23:16:12.300Z,15.05
2022-09-07T23:18:40.760Z,14.99
2022-09-07T23:21:08.181Z,14.96
2022-09-07T23:23:34.918Z,14.91
2022-09-07T23:26:05.470Z,14.88
2022-09-07T23:28:32.225Z,14.98
2022-09-07T23:30:59.129Z,15.04
2022-09-07T23:33:26.263Z,15.08
2022-09-07T23:36:06.937Z,14.88
2022-09-07T23:38:33.753Z,14.82
2022-09-07T23:41:00.470Z,14.74
2022-09-07T23:43:28.806Z,14.73
2022-09-07T23:45:55.913Z,14.71
2022-09-07T23:48:23.063Z,14.70
2022-09-07T23:50:50.319Z,14.69
2022-09-07T23:53:20.362Z,14.67
2022-09-07T23:55:52.528Z,14.62
2022-09-07T23:58:23.809Z,14.60
